sensor_id;sensor_type;location;lat;lon;timestamp;pressure;altitude;pressure_sealevel;temperature;humidity
26563;BME280;14217;50.986;5.826;2023-02-20T00:02:11;102046.84;;;19.20;44.54
26563;BME280;14217;50.986;5.826;2023-02-20T00:07:13;102033.63;;;19.19;44.62
26563;BME280;14217;50.986;5.826;2023-02-20T00:12:15;102033.53;;;19.22;44.60
26563;BME280;14217;50.986;5.826;2023-02-20T00:17:17;102035.31;;;19.21;44.47
26563;BME280;14217;50.986;5.826;2023-02-20T00:22:23;102017.69;;;19.19;44.76
26563;BME280;14217;50.986;5.826;2023-02-20T00:27:25;102007.94;;;19.19;44.66
26563;BME280;14217;50.986;5.826;2023-02-20T00:32:27;102001.69;;;19.20;44.65
26563;BME280;14217;50.986;5.826;2023-02-20T00:37:29;102000.84;;;19.18;44.75
26563;BME280;14217;50.986;5.826;2023-02-20T00:42:31;101995.63;;;19.17;44.68
26563;BME280;14217;50.986;5.826;2023-02-20T00:47:33;101994.47;;;19.25;44.22
26563;BME280;14217;50.986;5.826;2023-02-20T00:52:35;101982.25;;;19.18;44.30
26563;BME280;14217;50.986;5.826;2023-02-20T00:57:40;101977.00;;;19.17;44.70
26563;BME280;14217;50.986;5.826;2023-02-20T01:02:42;101966.28;;;19.20;44.39
26563;BME280;14217;50.986;5.826;2023-02-20T01:07:44;101961.94;;;19.17;44.60
26563;BME280;14217;50.986;5.826;2023-02-20T01:12:46;101949.47;;;19.19;44.44
26563;BME280;14217;50.986;5.826;2023-02-20T01:17:48;101955.75;;;19.17;44.67
26563;BME280;14217;50.986;5.826;2023-02-20T01:22:50;101955.75;;;19.17;44.48
26563;BME280;14217;50.986;5.826;2023-02-20T01:27:52;101942.41;;;19.18;44.28
26563;BME280;14217;50.986;5.826;2023-02-20T01:32:54;101958.28;;;19.21;44.39
26563;BME280;14217;50.986;5.826;2023-02-20T01:37:57;101954.78;;;19.19;44.42
26563;BME280;14217;50.986;5.826;2023-02-20T01:43:01;101943.31;;;19.19;44.43
26563;BME280;14217;50.986;5.826;2023-02-20T01:48:03;101932.75;;;19.16;44.51
26563;BME280;14217;50.986;5.826;2023-02-20T01:53:15;101931.03;;;19.15;44.38
26563;BME280;14217;50.986;5.826;2023-02-20T01:58:28;101940.81;;;19.13;44.65
26563;BME280;14217;50.986;5.826;2023-02-20T02:03:35;101942.47;;;19.17;44.34
26563;BME280;14217;50.986;5.826;2023-02-20T02:08:39;101941.69;;;19.13;44.53
26563;BME280;14217;50.986;5.826;2023-02-20T02:13:43;101939.81;;;19.17;44.35
26563;BME280;14217;50.986;5.826;2023-02-20T02:45:29;101895.66;;;19.13;44.27
26563;BME280;14217;50.986;5.826;2023-02-20T02:50:36;101876.13;;;19.14;44.15
26563;BME280;14217;50.986;5.826;2023-02-20T02:55:40;101862.69;;;19.18;44.22
26563;BME280;14217;50.986;5.826;2023-02-20T03:00:48;101853.06;;;19.14;43.98
26563;BME280;14217;50.986;5.826;2023-02-20T03:10:53;101841.59;;;19.14;44.12
26563;BME280;14217;50.986;5.826;2023-02-20T03:15:56;101830.97;;;19.14;44.26
26563;BME280;14217;50.986;5.826;2023-02-20T03:21:04;101839.75;;;19.16;44.05
26563;BME280;14217;50.986;5.826;2023-02-20T03:26:14;101836.34;;;19.12;44.31
26563;BME280;14217;50.986;5.826;2023-02-20T03:31:42;101831.13;;;19.09;44.42
26563;BME280;14217;50.986;5.826;2023-02-20T03:36:54;101821.31;;;19.11;44.00
26563;BME280;14217;50.986;5.826;2023-02-20T03:42:19;101813.31;;;19.13;44.13
26563;BME280;14217;50.986;5.826;2023-02-20T03:47:43;101816.03;;;19.09;44.16
26563;BME280;14217;50.986;5.826;2023-02-20T03:52:45;101824.69;;;19.16;44.08
26563;BME280;14217;50.986;5.826;2023-02-20T03:57:49;101819.38;;;19.16;43.82
26563;BME280;14217;50.986;5.826;2023-02-20T04:02:56;101800.84;;;19.15;43.76
26563;BME280;14217;50.986;5.826;2023-02-20T04:08:13;101807.22;;;19.09;43.75
26563;BME280;14217;50.986;5.826;2023-02-20T04:13:17;101808.84;;;19.13;43.60
26563;BME280;14217;50.986;5.826;2023-02-20T04:18:20;101809.88;;;19.09;43.65
26563;BME280;14217;50.986;5.826;2023-02-20T04:23:24;101822.13;;;19.13;43.86
26563;BME280;14217;50.986;5.826;2023-02-20T04:28:26;101823.06;;;19.12;43.85
26563;BME280;14217;50.986;5.826;2023-02-20T04:33:29;101823.16;;;19.09;43.70
26563;BME280;14217;50.986;5.826;2023-02-20T04:38:31;101830.22;;;19.10;43.59
26563;BME280;14217;50.986;5.826;2023-02-20T04:43:33;101825.81;;;19.09;43.62
26563;BME280;14217;50.986;5.826;2023-02-20T04:48:35;101825.81;;;19.09;43.63
26563;BME280;14217;50.986;5.826;2023-02-20T04:53:37;101830.25;;;19.08;43.71
26563;BME280;14217;50.986;5.826;2023-02-20T04:58:39;101828.56;;;19.06;43.94
26563;BME280;14217;50.986;5.826;2023-02-20T05:03:41;101838.22;;;19.08;43.69
26563;BME280;14217;50.986;5.826;2023-02-20T05:08:43;101832.88;;;19.10;43.54
26563;BME280;14217;50.986;5.826;2023-02-20T05:13:45;101827.63;;;19.07;43.81
26563;BME280;14217;50.986;5.826;2023-02-20T05:18:47;101840.06;;;19.06;43.58
26563;BME280;14217;50.986;5.826;2023-02-20T05:23:49;101836.47;;;19.07;43.80
26563;BME280;14217;50.986;5.826;2023-02-20T05:28:51;101832.03;;;19.08;43.72
26563;BME280;14217;50.986;5.826;2023-02-20T05:33:53;101838.38;;;19.04;43.85
26563;BME280;14217;50.986;5.826;2023-02-20T05:38:55;101837.41;;;19.06;43.56
26563;BME280;14217;50.986;5.826;2023-02-20T05:43:57;101837.47;;;19.03;43.82
26563;BME280;14217;50.986;5.826;2023-02-20T05:49:00;101833.91;;;19.04;43.73
26563;BME280;14217;50.986;5.826;2023-02-20T05:54:02;101833.06;;;19.04;43.71
26563;BME280;14217;50.986;5.826;2023-02-20T05:59:05;101826.00;;;19.03;43.47
26563;BME280;14217;50.986;5.826;2023-02-20T06:04:06;101828.59;;;19.04;43.70
26563;BME280;14217;50.986;5.826;2023-02-20T06:09:10;101821.53;;;19.03;43.43
26563;BME280;14217;50.986;5.826;2023-02-20T06:14:14;101820.59;;;19.06;43.54
26563;BME280;14217;50.986;5.826;2023-02-20T06:19:22;101816.34;;;19.00;43.41
26563;BME280;14217;50.986;5.826;2023-02-20T06:24:24;101822.31;;;19.07;43.68
26563;BME280;14217;50.986;5.826;2023-02-20T06:29:26;101827.00;;;18.99;43.20
26563;BME280;14217;50.986;5.826;2023-02-20T06:34:29;101843.91;;;18.96;44.08
26563;BME280;14217;50.986;5.826;2023-02-20T06:39:33;101850.03;;;18.98;43.34
26563;BME280;14217;50.986;5.826;2023-02-20T06:44:35;101844.69;;;19.00;43.00
26563;BME280;14217;50.986;5.826;2023-02-20T06:49:37;101852.84;;;18.94;42.85
26563;BME280;14217;50.986;5.826;2023-02-20T06:54:39;101863.28;;;19.00;42.92
26563;BME280;14217;50.986;5.826;2023-02-20T06:59:44;101857.19;;;18.96;42.81
26563;BME280;14217;50.986;5.826;2023-02-20T07:04:48;101871.28;;;18.98;42.44
26563;BME280;14217;50.986;5.826;2023-02-20T07:09:50;101862.50;;;18.96;42.37
26563;BME280;14217;50.986;5.826;2023-02-20T07:14:52;101851.88;;;18.96;42.69
26563;BME280;14217;50.986;5.826;2023-02-20T07:19:54;101865.50;;;18.84;45.09
26563;BME280;14217;50.986;5.826;2023-02-20T07:24:56;101856.75;;;18.80;44.37
26563;BME280;14217;50.986;5.826;2023-02-20T07:29:57;101862.69;;;18.90;43.30
26563;BME280;14217;50.986;5.826;2023-02-20T07:34:59;101879.47;;;18.91;43.18
26563;BME280;14217;50.986;5.826;2023-02-20T07:40:08;101874.13;;;18.92;42.87
26563;BME280;14217;50.986;5.826;2023-02-20T07:45:10;101869.69;;;18.93;42.53
26563;BME280;14217;50.986;5.826;2023-02-20T07:50:14;101852.78;;;18.95;42.40
26563;BME280;14217;50.986;5.826;2023-02-20T07:55:16;101867.13;;;18.89;42.49
26563;BME280;14217;50.986;5.826;2023-02-20T08:00:20;101874.22;;;18.89;42.28
26563;BME280;14217;50.986;5.826;2023-02-20T08:05:22;101874.16;;;18.91;42.08
26563;BME280;14217;50.986;5.826;2023-02-20T08:10:26;101876.06;;;18.87;41.97
26563;BME280;14217;50.986;5.826;2023-02-20T08:15:29;101872.47;;;18.88;41.79
26563;BME280;14217;50.986;5.826;2023-02-20T08:20:31;101872.34;;;18.93;41.86
26563;BME280;14217;50.986;5.826;2023-02-20T08:25:33;101873.41;;;18.87;41.98
26563;BME280;14217;50.986;5.826;2023-02-20T08:30:36;101874.34;;;18.84;42.09
26563;BME280;14217;50.986;5.826;2023-02-20T08:35:38;101872.88;;;18.74;44.63
26563;BME280;14217;50.986;5.826;2023-02-20T08:40:40;101871.81;;;18.80;43.66
26563;BME280;14217;50.986;5.826;2023-02-20T08:45:42;101879.59;;;18.87;42.96
26563;BME280;14217;50.986;5.826;2023-02-20T08:50:44;101869.03;;;18.84;42.92
26563;BME280;14217;50.986;5.826;2023-02-20T08:55:48;101867.22;;;18.86;42.37
26563;BME280;14217;50.986;5.826;2023-02-20T09:00:50;101859.19;;;18.88;42.43
26563;BME280;14217;50.986;5.826;2023-02-20T09:05:52;101867.31;;;18.83;42.19
26563;BME280;14217;50.986;5.826;2023-02-20T09:10:54;101868.97;;;18.87;42.82
26563;BME280;14217;50.986;5.826;2023-02-20T09:15:56;101881.22;;;18.92;43.40
26563;BME280;14217;50.986;5.826;2023-02-20T09:20:58;101866.06;;;18.95;43.34
26563;BME280;14217;50.986;5.826;2023-02-20T09:26:00;101877.66;;;18.93;43.69
26563;BME280;14217;50.986;5.826;2023-02-20T09:31:03;101868.78;;;18.94;43.58
26563;BME280;14217;50.986;5.826;2023-02-20T09:36:05;101880.41;;;18.89;43.94
26563;BME280;14217;50.986;5.826;2023-02-20T09:41:18;101859.13;;;18.91;43.82
26563;BME280;14217;50.986;5.826;2023-02-20T09:46:24;101858.97;;;18.96;43.42
26563;BME280;14217;50.986;5.826;2023-02-20T09:51:30;101861.69;;;18.94;43.38
26563;BME280;14217;50.986;5.826;2023-02-20T09:56:36;101863.50;;;18.92;43.16
26563;BME280;14217;50.986;5.826;2023-02-20T10:07:03;101869.66;;;18.94;42.91
26563;BME280;14217;50.986;5.826;2023-02-20T10:17:29;101856.41;;;18.93;43.53
26563;BME280;14217;50.986;5.826;2023-02-20T10:33:23;101875.81;;;18.95;43.35
26563;BME280;14217;50.986;5.826;2023-02-20T10:38:38;101865.28;;;18.92;43.42
26563;BME280;14217;50.986;5.826;2023-02-20T10:44:01;101863.41;;;18.95;43.23
26563;BME280;14217;50.986;5.826;2023-02-20T10:49:12;101861.78;;;18.91;43.07
26563;BME280;14217;50.986;5.826;2023-02-20T10:54:42;101851.19;;;18.89;43.13
26563;BME280;14217;50.986;5.826;2023-02-20T10:59:54;101840.47;;;18.93;43.09
26563;BME280;14217;50.986;5.826;2023-02-20T11:05:09;101835.06;;;18.96;42.78
26563;BME280;14217;50.986;5.826;2023-02-20T11:10:11;101829.75;;;18.96;42.76
26563;BME280;14217;50.986;5.826;2023-02-20T11:15:17;101822.81;;;18.92;42.89
26563;BME280;14217;50.986;5.826;2023-02-20T11:25:47;101838.75;;;18.92;42.79
26563;BME280;14217;50.986;5.826;2023-02-20T11:30:57;101826.38;;;18.91;42.72
26563;BME280;14217;50.986;5.826;2023-02-20T11:41:22;101827.28;;;18.89;42.43
26563;BME280;14217;50.986;5.826;2023-02-20T11:46:26;101831.59;;;18.94;42.16
26563;BME280;14217;50.986;5.826;2023-02-20T11:51:37;101828.13;;;18.92;42.32
26563;BME280;14217;50.986;5.826;2023-02-20T11:56:58;101822.88;;;18.88;42.28
26563;BME280;14217;50.986;5.826;2023-02-20T12:02:11;101822.06;;;18.86;42.01
26563;BME280;14217;50.986;5.826;2023-02-20T12:07:28;101812.25;;;18.88;42.20
26563;BME280;14217;50.986;5.826;2023-02-20T12:12:33;101814.91;;;18.88;42.04
26563;BME280;14217;50.986;5.826;2023-02-20T12:23:13;101801.72;;;18.87;42.13
26563;BME280;14217;50.986;5.826;2023-02-20T12:29:25;101777.66;;;18.92;41.83
26563;BME280;14217;50.986;5.826;2023-02-20T12:34:17;101776.19;;;18.81;42.17
26563;BME280;14217;50.986;5.826;2023-02-20T12:40:02;101780.66;;;18.81;42.41
26563;BME280;14217;50.986;5.826;2023-02-20T12:50:56;101755.78;;;18.83;41.85
26563;BME280;14217;50.986;5.826;2023-02-20T13:01:08;101744.38;;;18.80;41.47
26563;BME280;14217;50.986;5.826;2023-02-20T13:06:19;101746.13;;;18.81;41.60
26563;BME280;14217;50.986;5.826;2023-02-20T13:11:23;101724.69;;;18.87;41.62
26563;BME280;14217;50.986;5.826;2023-02-20T13:16:31;101714.97;;;18.86;41.60
26563;BME280;14217;50.986;5.826;2023-02-20T13:21:35;101698.16;;;18.87;41.20
26563;BME280;14217;50.986;5.826;2023-02-20T13:31:44;101678.53;;;18.91;41.37
26563;BME280;14217;50.986;5.826;2023-02-20T13:36:48;101664.38;;;18.91;41.72
26563;BME280;14217;50.986;5.826;2023-02-20T13:52:41;101683.03;;;18.59;39.56
26563;BME280;14217;50.986;5.826;2023-02-20T13:58:17;101676.16;;;18.82;40.76
26563;BME280;14217;50.986;5.826;2023-02-20T14:03:26;101677.59;;;18.64;40.33
26563;BME280;14217;50.986;5.826;2023-02-20T14:08:29;101650.88;;;18.70;40.55
26563;BME280;14217;50.986;5.826;2023-02-20T14:13:33;101630.25;;;18.78;40.56
26563;BME280;14217;50.986;5.826;2023-02-20T14:18:41;101622.19;;;18.81;42.89
26563;BME280;14217;50.986;5.826;2023-02-20T14:23:44;101635.47;;;18.81;44.01
26563;BME280;14217;50.986;5.826;2023-02-20T14:28:48;101599.94;;;18.85;43.46
26563;BME280;14217;50.986;5.826;2023-02-20T14:33:55;101604.38;;;18.85;43.41
26563;BME280;14217;50.986;5.826;2023-02-20T14:39:41;101604.31;;;18.86;43.42
26563;BME280;14217;50.986;5.826;2023-02-20T14:44:23;101589.16;;;18.90;43.13
26563;BME280;14217;50.986;5.826;2023-02-20T14:49:27;101568.94;;;18.86;43.43
26563;BME280;14217;50.986;5.826;2023-02-20T14:54:31;101574.28;;;18.84;43.52
26563;BME280;14217;50.986;5.826;2023-02-20T14:59:35;101599.00;;;18.86;43.41
26563;BME280;14217;50.986;5.826;2023-02-20T15:04:51;101608.81;;;18.84;43.24
26563;BME280;14217;50.986;5.826;2023-02-20T15:09:56;101612.22;;;18.88;43.17
26563;BME280;14217;50.986;5.826;2023-02-20T15:15:05;101623.03;;;18.83;43.35
26563;BME280;14217;50.986;5.826;2023-02-20T15:20:36;101600.13;;;18.79;43.27
26563;BME280;14217;50.986;5.826;2023-02-20T15:25:38;101616.84;;;18.83;46.97
26563;BME280;14217;50.986;5.826;2023-02-20T15:36:14;101601.66;;;18.86;45.97
26563;BME280;14217;50.986;5.826;2023-02-20T15:41:18;101603.38;;;18.89;45.43
26563;BME280;14217;50.986;5.826;2023-02-20T15:46:21;101598.09;;;18.87;45.20
26563;BME280;14217;50.986;5.826;2023-02-20T15:51:24;101591.03;;;18.86;45.13
26563;BME280;14217;50.986;5.826;2023-02-20T15:56:29;101595.66;;;18.81;44.99
26563;BME280;14217;50.986;5.826;2023-02-20T16:01:32;101604.38;;;18.85;44.82
26563;BME280;14217;50.986;5.826;2023-02-20T16:06:35;101599.06;;;18.85;44.76
26563;BME280;14217;50.986;5.826;2023-02-20T16:11:42;101589.13;;;18.92;44.57
26563;BME280;14217;50.986;5.826;2023-02-20T16:16:47;101595.31;;;18.91;44.57
26563;BME280;14217;50.986;5.826;2023-02-20T16:21:51;101605.22;;;18.87;44.59
26563;BME280;14217;50.986;5.826;2023-02-20T16:27:00;101609.78;;;18.82;44.54
26563;BME280;14217;50.986;5.826;2023-02-20T16:37:10;101603.41;;;18.87;44.06
26563;BME280;14217;50.986;5.826;2023-02-20T16:42:18;101589.19;;;18.88;43.68
26563;BME280;14217;50.986;5.826;2023-02-20T16:47:24;101593.69;;;18.86;43.70
26563;BME280;14217;50.986;5.826;2023-02-20T16:57:33;101597.25;;;18.87;43.47
26563;BME280;14217;50.986;5.826;2023-02-20T17:02:35;101602.63;;;18.84;43.49
26563;BME280;14217;50.986;5.826;2023-02-20T17:07:37;101596.34;;;18.86;43.27
26563;BME280;14217;50.986;5.826;2023-02-20T17:12:40;101595.84;;;18.74;42.92
26563;BME280;14217;50.986;5.826;2023-02-20T17:17:42;101595.78;;;18.77;42.84
26563;BME280;14217;50.986;5.826;2023-02-20T17:22:46;101601.88;;;18.80;42.71
26563;BME280;14217;50.986;5.826;2023-02-20T17:28:04;101600.03;;;18.82;42.83
26563;BME280;14217;50.986;5.826;2023-02-20T17:33:06;101593.97;;;18.79;42.92
26563;BME280;14217;50.986;5.826;2023-02-20T17:38:07;101571.75;;;18.81;42.74
26563;BME280;14217;50.986;5.826;2023-02-20T17:43:09;101571.72;;;18.83;42.86
26563;BME280;14217;50.986;5.826;2023-02-20T17:48:11;101595.13;;;18.70;42.96
26563;BME280;14217;50.986;5.826;2023-02-20T17:53:13;101586.00;;;18.77;42.80
26563;BME280;14217;50.986;5.826;2023-02-20T17:58:15;101586.00;;;18.79;42.58
26563;BME280;14217;50.986;5.826;2023-02-20T18:03:17;101608.00;;;18.82;42.53
26563;BME280;14217;50.986;5.826;2023-02-20T18:08:20;101623.91;;;18.82;42.76
26563;BME280;14217;50.986;5.826;2023-02-20T18:13:22;101612.28;;;18.86;42.75
26563;BME280;14217;50.986;5.826;2023-02-20T18:18:24;101602.75;;;18.81;42.89
26563;BME280;14217;50.986;5.826;2023-02-20T18:23:26;101616.84;;;18.83;42.89
26563;BME280;14217;50.986;5.826;2023-02-20T18:28:28;101612.56;;;18.79;42.83
26563;BME280;14217;50.986;5.826;2023-02-20T18:33:30;101624.00;;;18.81;42.95
26563;BME280;14217;50.986;5.826;2023-02-20T18:38:32;101606.31;;;18.80;42.83
26563;BME280;14217;50.986;5.826;2023-02-20T18:43:34;101633.81;;;18.79;42.92
26563;BME280;14217;50.986;5.826;2023-02-20T18:48:36;101614.34;;;19.03;43.50
26563;BME280;14217;50.986;5.826;2023-02-20T18:53:38;101632.50;;;18.91;43.68
26563;BME280;14217;50.986;5.826;2023-02-20T18:58:40;101605.09;;;18.90;43.79
26563;BME280;14217;50.986;5.826;2023-02-20T19:03:42;101632.66;;;18.86;43.97
26563;BME280;14217;50.986;5.826;2023-02-20T19:08:43;101601.66;;;18.86;43.86
26563;BME280;14217;50.986;5.826;2023-02-20T19:13:45;101626.44;;;18.87;43.72
26563;BME280;14217;50.986;5.826;2023-02-20T19:18:48;101628.22;;;18.86;43.93
26563;BME280;14217;50.986;5.826;2023-02-20T19:23:51;101611.47;;;18.84;43.93
26563;BME280;14217;50.986;5.826;2023-02-20T19:28:53;101623.03;;;18.83;44.00
26563;BME280;14217;50.986;5.826;2023-02-20T19:33:55;101633.53;;;18.86;43.82
26563;BME280;14217;50.986;5.826;2023-02-20T19:38:57;101606.97;;;18.86;44.02
26563;BME280;14217;50.986;5.826;2023-02-20T19:43:59;101598.19;;;18.84;44.01
26563;BME280;14217;50.986;5.826;2023-02-20T19:49:02;101586.66;;;18.85;43.93
26563;BME280;14217;50.986;5.826;2023-02-20T19:54:10;101608.75;;;18.86;43.97
26563;BME280;14217;50.986;5.826;2023-02-20T19:59:12;101597.28;;;18.85;43.85
26563;BME280;14217;50.986;5.826;2023-02-20T20:04:16;101600.75;;;18.87;43.95
26563;BME280;14217;50.986;5.826;2023-02-20T20:09:19;101607.03;;;18.85;44.16
26563;BME280;14217;50.986;5.826;2023-02-20T20:14:36;101604.72;;;19.01;44.64
26563;BME280;14217;50.986;5.826;2023-02-20T20:19:38;101600.50;;;19.20;44.60
26563;BME280;14217;50.986;5.826;2023-02-20T20:24:50;101603.91;;;18.99;45.51
26563;BME280;14217;50.986;5.826;2023-02-20T20:29:52;101610.44;;;18.88;45.35
26563;BME280;14217;50.986;5.826;2023-02-20T20:34:54;101605.44;;;19.06;45.05
26563;BME280;14217;50.986;5.826;2023-02-20T20:39:57;101596.75;;;19.01;45.85
26563;BME280;14217;50.986;5.826;2023-02-20T20:44:59;101598.75;;;18.94;45.93
26563;BME280;14217;50.986;5.826;2023-02-20T20:50:02;101597.88;;;18.94;45.82
26563;BME280;14217;50.986;5.826;2023-02-20T20:55:05;101598.78;;;18.93;45.95
26563;BME280;14217;50.986;5.826;2023-02-20T21:00:20;101604.19;;;18.91;45.83
26563;BME280;14217;50.986;5.826;2023-02-20T21:05:26;101590.91;;;18.91;45.80
26563;BME280;14217;50.986;5.826;2023-02-20T21:10:29;101589.13;;;18.92;45.77
26563;BME280;14217;50.986;5.826;2023-02-20T21:15:31;101571.44;;;18.91;45.62
26563;BME280;14217;50.986;5.826;2023-02-20T21:20:34;101572.38;;;18.89;45.47
26563;BME280;14217;50.986;5.826;2023-02-20T21:25:37;101575.84;;;18.92;45.72
26563;BME280;14217;50.986;5.826;2023-02-20T21:30:39;101575.78;;;18.93;45.82
26563;BME280;14217;50.986;5.826;2023-02-20T21:35:41;101569.69;;;18.89;46.04
26563;BME280;14217;50.986;5.826;2023-02-20T21:40:43;101571.50;;;18.89;45.89
26563;BME280;14217;50.986;5.826;2023-02-20T21:45:45;101574.59;;;19.02;45.70
26563;BME280;14217;50.986;5.826;2023-02-20T21:50:48;101565.66;;;19.04;45.71
26563;BME280;14217;50.986;5.826;2023-02-20T21:55:52;101555.81;;;18.81;48.94
26563;BME280;14217;50.986;5.826;2023-02-20T22:00:53;101556.31;;;18.93;49.29
26563;BME280;14217;50.986;5.826;2023-02-20T22:05:55;101555.19;;;19.00;48.68
26563;BME280;14217;50.986;5.826;2023-02-20T22:10:59;101554.19;;;19.27;47.77
26563;BME280;14217;50.986;5.826;2023-02-20T22:16:20;101540.38;;;19.18;47.29
26563;BME280;14217;50.986;5.826;2023-02-20T22:21:40;101537.47;;;19.00;47.90
26563;BME280;14217;50.986;5.826;2023-02-20T22:27:01;101538.31;;;19.01;47.69
26563;BME280;14217;50.986;5.826;2023-02-20T22:32:22;101515.44;;;18.97;47.23
26563;BME280;14217;50.986;5.826;2023-02-20T22:37:45;101530.69;;;18.92;47.36
26563;BME280;14217;50.986;5.826;2023-02-20T22:43:06;101521.75;;;18.94;47.36
26563;BME280;14217;50.986;5.826;2023-02-20T22:48:26;101535.06;;;18.93;46.93
26563;BME280;14217;50.986;5.826;2023-02-20T22:53:46;101541.31;;;18.92;46.95
26563;BME280;14217;50.986;5.826;2023-02-20T22:59:07;101538.69;;;18.90;46.48
26563;BME280;14217;50.986;5.826;2023-02-20T23:04:28;101539.50;;;18.92;46.55
26563;BME280;14217;50.986;5.826;2023-02-20T23:09:49;101529.84;;;18.91;46.63
26563;BME280;14217;50.986;5.826;2023-02-20T23:15:09;101514.75;;;18.92;46.55
26563;BME280;14217;50.986;5.826;2023-02-20T23:20:30;101518.41;;;18.89;46.21
26563;BME280;14217;50.986;5.826;2023-02-20T23:25:50;101509.53;;;18.88;46.11
26563;BME280;14217;50.986;5.826;2023-02-20T23:31:11;101501.53;;;18.90;46.02
26563;BME280;14217;50.986;5.826;2023-02-20T23:36:32;101497.06;;;18.91;46.02
26563;BME280;14217;50.986;5.826;2023-02-20T23:41:52;101515.66;;;18.91;45.89
26563;BME280;14217;50.986;5.826;2023-02-20T23:47:13;101501.53;;;18.90;45.84
26563;BME280;14217;50.986;5.826;2023-02-20T23:52:33;101506.78;;;18.92;45.57
26563;BME280;14217;50.986;5.826;2023-02-20T23:57:53;101506.06;;;18.86;45.75
